Cedar Ridge, California
Current Conditions -  °F | °C
As of 8:20 AM on Thursday 29 Jan 2015 (Local Time) from KGOO Reporting Station
Clear Clear  
Wind Chill: 54°   Ceiling: Unl
Heat Index: 54°   Visibility: 10mi
Dew Point: 30°   Wind: 0mph
Humidity: 41%   Direction: NA
Pressure: 30.17"   Gusts: NA
Location:  39.19°N, 121.02°W
Report Text: KGOO 291620Z AUTO 00000KT 10SM CLR 12/M01 A3017 RMK AO1
Loading
Personal Weather Stations






























Interactive Weather Map New forecast layout! Learn more

10-Day Weather Forecast

Advertisements
Track Severe Weather on mobile